Time;durP1;ratioP1;P1;durP2;ratioP2;P2;SDS_P1;SDS_P2;PMS_P1;PMS_P2;Temp;Humidity;BMP_temperature;BMP_pressure;BME280_temperature;BME280_humidity;BME280_pressure;Samples;Min_cycle;Max_cycle;Signal;HPM_P1;HPM_P2
2023/05/29 00:00:44;;;;;;;5.20;1.95;;;;;;;;;;4988967;28;20398;-76
2023/05/29 00:03:10;;;;;;;2.88;1.42;;;;;;;;;;4975106;28;20910;-78
2023/05/29 00:05:36;;;;;;;4.87;1.67;;;;;;;;;;4979365;28;20421;-77
2023/05/29 00:08:02;;;;;;;3.55;1.70;;;;;;;;;;4989390;28;20421;-77
2023/05/29 00:10:28;;;;;;;4.07;1.77;;;;;;;;;;4987140;28;20486;-76
2023/05/29 00:12:55;;;;;;;4.65;1.70;;;;;;;;;;4990850;28;20390;-77
2023/05/29 00:15:23;;;;;;;4.65;1.92;;;;;;;;;;4968919;28;20384;-77
2023/05/29 00:17:49;;;;;;;6.00;2.00;;;;;;;;;;4976143;28;20413;-77
2023/05/29 00:20:15;;;;;;;3.90;2.00;;;;;;;;;;4988557;28;20400;-79
2023/05/29 00:22:41;;;;;;;5.57;2.00;;;;;;;;;;4987908;28;20410;-77
2023/05/29 00:25:08;;;;;;;5.43;2.00;;;10.30;99.90;;;;;;4972789;28;20411;-78
2023/05/29 00:27:35;;;;;;;5.38;2.03;;;;;;;;;;4985911;28;21054;-75
2023/05/29 00:30:01;;;;;;;4.07;1.90;;;;;;;;;;4989256;28;20763;-77
2023/05/29 00:32:27;;;;;;;4.00;1.63;;;;;;;;;;4990135;28;20394;-77
2023/05/29 00:34:54;;;;;;;4.23;1.60;;;;;;;;;;4979109;28;20618;-77
2023/05/29 00:37:21;;;;;;;5.68;1.90;;;;;;;;;;4981773;28;20410;-77
2023/05/29 00:39:47;;;;;;;3.70;1.67;;;;;;;;;;4990785;28;20471;-78
2023/05/29 00:42:13;;;;;;;4.13;1.48;;;;;;;;;;4989219;28;20399;-78
2023/05/29 00:44:39;;;;;;;6.87;1.90;;;;;;;;;;4987674;28;20384;-77
2023/05/29 00:47:09;;;;;;;5.40;2.13;;;10.30;99.90;;;;;;4995631;28;20493;-77
2023/05/29 00:49:36;;;;;;;4.10;1.33;;;;;;;;;;4985887;28;20440;-78
2023/05/29 00:52:03;;;;;;;4.32;2.30;;;;;;;;;;4991469;28;20394;-76
2023/05/29 00:54:30;;;;;;;4.43;1.77;;;;;;;;;;4993525;28;20449;-77
2023/05/29 00:56:57;;;;;;;3.53;1.80;;;;;;;;;;4988283;28;20422;-77
2023/05/29 00:59:24;;;;;;;5.75;1.95;;;;;;;;;;4981806;28;20406;-78
2023/05/29 01:01:51;;;;;;;3.50;1.63;;;;;;;;;;4973723;28;20406;-77
2023/05/29 01:04:33;;;;;;;3.75;1.80;;;;;;;;;;4979329;28;20413;-79
2023/05/29 01:10:04;;;;;;;4.05;1.58;;;;;;;;;;4979079;28;20945;-79
2023/05/29 01:12:30;;;;;;;5.40;1.60;;;;;;;;;;4971863;28;20916;-78
2023/05/29 01:15:12;;;;;;;6.18;2.10;;;;;;;;;;4991356;28;20406;-79
2023/05/29 01:17:57;;;;;;;5.53;2.00;;;;;;;;;;4990471;28;20406;-77
2023/05/29 01:20:29;;;;;;;4.00;2.03;;;;;;;;;;4991256;28;20444;-78
2023/05/29 01:23:04;;;;;;;4.60;2.00;;;;;;;;;;4982188;28;20792;-75
2023/05/29 01:25:33;;;;;;;2.83;1.40;;;;;;;;;;4971263;28;20903;-75
2023/05/29 01:28:02;;;;;;;4.17;2.03;;;;;;;;;;4991728;28;20421;-77
2023/05/29 01:30:29;;;;;;;4.38;1.88;;;;;;;;;;4983691;28;20492;-77
2023/05/29 01:32:55;;;;;;;6.93;2.00;;;;;;;;;;4993031;28;20437;-75
2023/05/29 01:35:21;;;;;;;5.23;2.30;;;;;;;;;;4991402;28;20407;-77
2023/05/29 01:37:47;;;;;;;3.58;1.50;;;;;;;;;;4993404;28;20429;-77
2023/05/29 01:40:14;;;;;;;2.95;1.73;;;;;;;;;;4991631;28;20410;-76
2023/05/29 01:42:40;;;;;;;3.22;1.80;;;;;;;;;;4990635;28;20398;-77
2023/05/29 01:45:06;;;;;;;3.05;1.75;;;;;;;;;;4985551;28;20527;-78
2023/05/29 01:47:33;;;;;;;5.05;2.15;;;;;;;;;;4993572;28;20469;-78
2023/05/29 01:50:00;;;;;;;6.00;1.95;;;10.00;99.90;;;;;;4987519;28;20405;-76
2023/05/29 01:52:26;;;;;;;4.28;1.92;;;;;;;;;;4990252;28;20403;-77
2023/05/29 01:54:52;;;;;;;3.33;1.52;;;;;;;;;;4996545;28;20400;-76
2023/05/29 01:57:18;;;;;;;5.18;2.00;;;;;;;;;;4987087;28;20867;-76
2023/05/29 01:59:44;;;;;;;4.60;1.77;;;;;;;;;;4990199;28;20410;-76
2023/05/29 02:02:12;;;;;;;4.63;2.03;;;;;;;;;;4976119;28;20398;-77
2023/05/29 02:04:38;;;;;;;5.85;1.92;;;;;;;;;;4979044;28;20809;-77
2023/05/29 02:07:04;;;;;;;5.15;1.88;;;;;;;;;;4985189;28;20478;-77
2023/05/29 02:09:30;;;;;;;4.40;1.90;;;;;;;;;;4975427;28;20402;-77
2023/05/29 02:11:56;;;;;;;3.93;1.83;;;;;;;;;;4989506;28;20380;-77
2023/05/29 02:14:24;;;;;;;4.47;1.90;;;;;;;;;;4987778;28;20394;-77
2023/05/29 02:16:51;;;;;;;4.38;1.63;;;;;;;;;;4990057;28;20549;-78
2023/05/29 02:19:18;;;;;;;4.28;1.90;;;;;;;;;;4971706;28;20783;-77
2023/05/29 02:21:44;;;;;;;6.53;2.17;;;;;;;;;;4973212;28;20458;-77
2023/05/29 02:24:10;;;;;;;4.20;2.00;;;;;;;;;;4976352;28;20414;-77
2023/05/29 02:26:40;;;;;;;5.65;2.00;;;;;;;;;;4978448;28;20468;-76
2023/05/29 02:29:06;;;;;;;5.40;1.85;;;;;;;;;;4989685;28;20810;-77
2023/05/29 02:31:32;;;;;;;3.90;1.58;;;;;;;;;;4990150;28;20886;-78
2023/05/29 02:33:58;;;;;;;3.70;1.95;;;;;;;;;;4995981;28;20421;-78
2023/05/29 02:36:25;;;;;;;3.40;1.63;;;;;;;;;;4983692;28;20936;-76
2023/05/29 02:38:51;;;;;;;3.22;1.83;;;;;;;;;;4984113;28;20429;-75
2023/05/29 02:41:17;;;;;;;4.78;1.73;;;;;;;;;;4976456;28;20980;-77
2023/05/29 02:43:43;;;;;;;3.90;1.58;;;;;;;;;;4984993;28;20422;-78
2023/05/29 02:46:09;;;;;;;5.47;2.20;;;;;;;;;;4992592;28;20406;-78
2023/05/29 02:48:35;;;;;;;4.97;1.88;;;;;;;;;;4981046;28;20903;-78
2023/05/29 02:51:01;;;;;;;3.80;2.05;;;;;;;;;;4987161;28;20402;-77
2023/05/29 02:53:27;;;;;;;4.43;2.13;;;;;;;;;;4986327;28;20408;-77
2023/05/29 02:55:53;;;;;;;5.43;2.17;;;;;;;;;;4970329;28;20422;-77
2023/05/29 02:58:20;;;;;;;5.45;1.90;;;;;;;;;;4971031;28;20502;-76
2023/05/29 03:00:47;;;;;;;4.72;1.90;;;;;;;;;;4966573;28;20390;-77
2023/05/29 03:03:13;;;;;;;4.97;2.00;;;;;;;;;;4980506;28;20470;-76
2023/05/29 03:05:39;;;;;;;4.35;2.15;;;;;;;;;;4983648;28;20459;-76
2023/05/29 03:08:05;;;;;;;3.88;1.70;;;;;;;;;;4991303;28;20457;-76
2023/05/29 03:10:31;;;;;;;4.68;1.90;;;;;;;;;;4986338;28;20408;-76
2023/05/29 03:12:57;;;;;;;5.60;1.85;;;;;;;;;;4990576;28;20546;-77
2023/05/29 03:15:23;;;;;;;5.10;1.63;;;;;;;;;;4974733;28;20438;-76
2023/05/29 03:17:49;;;;;;;5.22;1.80;;;;;;;;;;4988313;28;20426;-77
2023/05/29 03:20:15;;;;;;;6.10;1.83;;;;;;;;;;4988720;28;20506;-77
2023/05/29 03:22:41;;;;;;;4.63;1.80;;;;;;;;;;4989517;28;20767;-76
2023/05/29 03:25:07;;;;;;;5.38;1.65;;;;;;;;;;4985194;28;20399;-78
2023/05/29 03:27:33;;;;;;;4.53;1.50;;;;;;;;;;4986013;28;20426;-76
2023/05/29 03:29:59;;;;;;;4.65;1.75;;;;;;;;;;4979448;28;20556;-78
2023/05/29 03:32:25;;;;;;;5.13;1.77;;;;;;;;;;4991803;28;20490;-79
2023/05/29 03:34:51;;;;;;;3.72;1.70;;;;;;;;;;4988566;28;20406;-77
2023/05/29 03:37:17;;;;;;;3.42;1.70;;;;;;;;;;4990490;28;20476;-77
2023/05/29 03:39:43;;;;;;;5.13;1.80;;;;;;;;;;4983892;28;20471;-78
2023/05/29 03:42:09;;;;;;;4.70;1.73;;;;;;;;;;4985260;28;20414;-79
2023/05/29 03:44:35;;;;;;;5.63;1.80;;;;;;;;;;4985411;28;20499;-76
2023/05/29 03:47:01;;;;;;;6.60;1.60;;;;;;;;;;4970868;28;20446;-77
2023/05/29 03:49:27;;;;;;;6.35;1.88;;;;;;;;;;4965801;28;20421;-76
2023/05/29 03:51:53;;;;;;;2.35;1.20;;;;;;;;;;4970421;28;20407;-75
2023/05/29 03:54:19;;;;;;;3.53;1.52;;;;;;;;;;4987926;28;20398;-76
2023/05/29 03:56:45;;;;;;;4.13;1.48;;;;;;;;;;4989156;28;20402;-77
2023/05/29 03:59:11;;;;;;;3.92;1.70;;;;;;;;;;4986240;28;20406;-76
2023/05/29 04:01:37;;;;;;;4.82;1.90;;;;;;;;;;4989032;28;20837;-76
2023/05/29 04:04:03;;;;;;;3.40;1.33;;;;;;;;;;4984786;28;20398;-78
2023/05/29 04:06:29;;;;;;;3.65;1.52;;;;;;;;;;4984051;28;20920;-78
2023/05/29 04:08:55;;;;;;;2.58;1.33;;;;;;;;;;4989286;28;20473;-77
2023/05/29 04:11:22;;;;;;;3.50;1.77;;;;;;;;;;4985114;28;20485;-76
2023/05/29 04:13:48;;;;;;;3.50;1.48;;;;;;;;;;4994985;28;20382;-78
2023/05/29 04:16:14;;;;;;;5.25;1.60;;;;;;;;;;4992254;28;20466;-75
2023/05/29 04:18:40;;;;;;;6.80;1.60;;;;;;;;;;4992642;28;20385;-77
2023/05/29 04:21:06;;;;;;;6.57;1.83;;;;;;;;;;4989899;28;20955;-78
2023/05/29 04:23:32;;;;;;;4.30;1.33;;;9.80;99.90;;;;;;4976173;28;20392;-77
2023/05/29 04:25:57;;;;;;;;;;;9.80;99.90;;;;;;4996017;28;20033;-77
2023/05/29 04:28:24;;;;;;;;;;;9.10;99.90;;;;;;4995758;28;19921;-79
2023/05/29 04:30:51;;;;;;;;;;;;;;;;;;4994498;28;20096;-76
2023/05/29 04:33:17;;;;;;;;;;;9.10;99.90;;;;;;4979050;28;19941;-77
2023/05/29 04:35:43;;;;;;;0.95;0.60;;;;;;;;;;4992848;28;20416;-76
2023/05/29 04:38:11;;;;;;;3.10;1.15;;;10.00;99.90;;;;;;4996243;28;20030;-77
2023/05/29 04:40:37;;;;;;;3.00;1.33;;;;;;;;;;4991631;28;20041;-77
2023/05/29 04:43:05;;;;;;;2.80;1.27;;;;;;;;;;4984229;28;20411;-77
2023/05/29 04:45:31;;;;;;;3.28;1.25;;;;;;;;;;4993152;28;20030;-75
2023/05/29 04:47:57;;;;;;;6.47;1.30;;;;;;;;;;4987952;28;20126;-78
2023/05/29 04:50:23;;;;;;;1.98;1.10;;;;;;;;;;4993428;28;20026;-78
2023/05/29 04:52:49;;;;;;;7.60;1.48;;;;;;;;;;4978558;28;20030;-77
2023/05/29 04:55:16;;;;;;;2.47;1.50;;;;;;;;;;4997084;28;20537;-78
2023/05/29 04:57:42;;;;;;;3.42;1.20;;;;;;;;;;4992949;28;20490;-77
2023/05/29 05:00:14;;;;;;;5.40;2.78;;;10.50;99.90;;;;;;4982979;28;20052;-78
2023/05/29 05:02:42;;;;;;;3.60;1.75;;;;;;;;;;4991135;28;20030;-76
2023/05/29 05:05:08;;;;;;;2.47;1.15;;;;;;;;;;4993534;28;20036;-77
2023/05/29 05:07:34;;;;;;;4.55;2.00;;;;;;;;;;4995106;28;20092;-78
2023/05/29 05:10:00;;;;;;;5.30;1.55;;;10.90;99.90;;;;;;4992342;28;20506;-76
2023/05/29 05:12:26;;;;;;;2.85;1.45;;;;;;;;;;4993796;28;20045;-76
2023/05/29 05:14:52;;;;;;;5.72;1.98;;;;;;;;;;4993511;28;20084;-76
2023/05/29 05:17:18;;;;;;;10.20;3.38;;;;;;;;;;4995622;28;20113;-77
2023/05/29 05:19:44;;;;;;;3.85;1.90;;;;;;;;;;4969137;28;20031;-76
2023/05/29 05:22:11;;;;;;;3.72;1.40;;;11.20;99.90;;;;;;4989999;28;20515;-78
2023/05/29 05:24:37;;;;;;;7.15;2.28;;;12.10;99.90;;;;;;4991821;28;20518;-77
2023/05/29 05:27:05;;;;;;;3.55;1.50;;;;;;;;;;4988161;28;20026;-75
2023/05/29 05:29:30;;;;;;;3.17;1.33;;;12.80;99.90;;;;;;4992092;28;20179;-80
2023/05/29 05:31:56;;;;;;;5.70;1.38;;;;;;;;;;4973788;28;20546;-80
2023/05/29 05:34:22;;;;;;;4.22;1.60;;;;;;;;;;4992267;28;20105;-77
2023/05/29 05:36:49;;;;;;;4.78;1.60;;;;;;;;;;4995132;28;20042;-76
2023/05/29 05:39:15;;;;;;;3.42;1.38;;;;;;;;;;4984682;28;20117;-75
2023/05/29 05:41:41;;;;;;;2.30;1.17;;;;;;;;;;4993144;28;20126;-77
2023/05/29 05:44:07;;;;;;;2.42;0.95;;;;;;;;;;4987617;28;20061;-78
2023/05/29 05:46:33;;;;;;;2.95;1.52;;;;;;;;;;4995459;28;20502;-77
2023/05/29 05:49:00;;;;;;;9.63;1.30;;;;;;;;;;4993903;28;20415;-79
2023/05/29 05:51:26;;;;;;;;;;;16.90;99.90;;;;;;4988856;28;20109;-76
2023/05/29 05:53:52;;;;;;;;;;;17.40;99.90;;;;;;4989679;28;20004;-75
2023/05/29 05:56:17;;;;;;;;;;;18.20;99.90;;;;;;4989231;28;20016;-76
2023/05/29 05:58:43;;;;;;;;;;;19.60;99.90;;;;;;4986360;28;19925;-78
2023/05/29 06:01:08;;;;;;;;;;;20.70;99.90;;;;;;4988261;28;19961;-77
2023/05/29 06:03:36;;;;;;;6.38;1.67;;;;;;;;;;4989682;28;20385;-79
2023/05/29 06:06:02;;;;;;;;;;;20.80;99.90;;;;;;4988555;28;20080;-78
2023/05/29 06:08:28;;;;;;;5.28;1.83;;;;;;;;;;4991809;28;19918;-79
2023/05/29 06:10:53;;;;;;;4.10;1.38;;;20.70;99.90;;;;;;4989695;28;20097;-75
2023/05/29 06:13:19;;;;;;;;;;;21.50;93.50;;;;;;4971789;28;20442;-78
2023/05/29 06:15:45;;;;;;;;;;;21.70;92.50;;;;;;4975550;28;19910;-78
2023/05/29 06:18:11;;;;;;;;;;;21.90;92.40;;;;;;4995775;28;20286;-78
2023/05/29 06:20:37;;;;;;;7.03;1.42;;;;;;;;;;4975243;28;19965;-79
2023/05/29 06:23:03;;;;;;;4.07;1.23;;;;;;;;;;4989815;28;20026;-78
2023/05/29 06:25:33;;;;;;;1.98;1.17;;;29.20;66.20;;;;;;4991752;28;20542;-79
2023/05/29 06:28:02;;;;;;;3.10;1.17;;;30.20;61.40;;;;;;4987095;28;20038;-77
2023/05/29 06:30:29;;;;;;;2.47;1.48;;;31.10;52.40;;;;;;4989561;28;20032;-80
2023/05/29 06:32:56;;;;;;;3.17;1.65;;;32.00;50.70;;;;;;4990612;28;20402;-80
2023/05/29 06:35:21;;;;;;;2.53;1.17;;;33.50;64.90;;;;;;4993319;28;20019;-78
2023/05/29 06:37:47;;;;;;;2.63;1.20;;;33.70;54.50;;;;;;4991261;28;20033;-79
2023/05/29 06:40:15;;;;;;;2.35;1.63;;;;;;;;;;4993762;28;20117;-78
2023/05/29 06:42:44;;;;;;;2.55;1.38;;;;;;;;;;4987327;28;20118;-79
2023/05/29 06:45:11;;;;;;;4.53;1.02;;;35.10;52.10;;;;;;4993542;28;20022;-78
2023/05/29 06:47:37;;;;;;;2.15;1.00;;;;;;;;;;4988324;28;20030;-80
2023/05/29 06:50:03;;;;;;;3.38;1.20;;;;;;;;;;4973493;28;20368;-80
2023/05/29 06:52:29;;;;;;;1.83;0.90;;;;;;;;;;4987933;28;20529;-80
2023/05/29 06:54:56;;;;;;;6.57;1.10;;;36.30;50.60;;;;;;4991697;28;20018;-81
2023/05/29 06:57:22;;;;;;;2.00;1.02;;;;;;;;;;4987513;28;20054;-78
2023/05/29 06:59:50;;;;;;;4.47;1.10;;;36.50;52.20;;;;;;4975786;28;20298;-76
2023/05/29 07:02:17;;;;;;;2.17;1.10;;;36.20;35.70;;;;;;4977126;28;20022;-80
2023/05/29 07:04:43;;;;;;;5.57;1.40;;;;;;;;;;4987233;28;20034;-78
2023/05/29 07:07:09;;;;;;;2.65;1.40;;;;;;;;;;4973324;28;20065;-80
2023/05/29 07:09:35;;;;;;;3.45;1.10;;;;;;;;;;4993044;28;20278;-79
2023/05/29 07:12:01;;;;;;;3.95;0.73;;;;;;;;;;4988626;28;20030;-80
2023/05/29 07:14:27;;;;;;;3.08;1.48;;;;;;;;;;4987852;28;20030;-79
2023/05/29 07:16:53;;;;;;;4.60;0.90;;;;;;;;;;4968152;28;20034;-81
2023/05/29 07:19:19;;;;;;;2.97;1.08;;;;;;;;;;4970892;28;20405;-79
2023/05/29 07:21:45;;;;;;;2.90;0.82;;;;;;;;;;4990799;28;20109;-78
2023/05/29 07:24:11;;;;;;;2.47;0.98;;;;;;;;;;4983963;28;20030;-79
2023/05/29 07:26:37;;;;;;;3.00;0.98;;;;;;;;;;4988638;28;20372;-81
2023/05/29 07:29:03;;;;;;;1.70;0.85;;;;;;;;;;4987201;28;20041;-79
2023/05/29 07:31:30;;;;;;;2.88;1.02;;;;;;;;;;4981860;28;20027;-81
2023/05/29 07:33:56;;;;;;;2.05;0.85;;;36.20;48.60;;;;;;4993274;28;20029;-82
2023/05/29 07:36:22;;;;;;;2.55;1.25;;;;;;;;;;4991040;28;20411;-79
2023/05/29 07:38:48;;;;;;;3.05;0.88;;;;;;;;;;4983664;28;20041;-77
2023/05/29 07:41:17;;;;;;;3.75;1.17;;;33.20;40.10;;;;;;4983507;28;20038;-78
2023/05/29 07:43:45;;;;;;;1.67;1.00;;;;;;;;;;4987183;28;20034;-80
2023/05/29 07:46:10;;;;;;;;;;;32.50;40.60;;;;;;4983862;28;20299;-77
2023/05/29 07:48:36;;;;;;;;;;;31.60;39.60;;;;;;4988416;28;20378;-81
2023/05/29 07:51:01;;;;;;;;;;;29.70;42.00;;;;;;4993042;28;19905;-79
2023/05/29 07:53:27;;;;;;;;;;;30.20;45.50;;;;;;4989319;28;19910;-82
2023/05/29 07:55:52;;;;;;;;;;;29.80;44.60;;;;;;4971275;28;19912;-82
2023/05/29 07:58:18;;;;;;;;;;;27.70;47.10;;;;;;4988022;28;19921;-78
2023/05/29 08:00:44;;;;;;;;;;;26.80;48.80;;;;;;4989304;28;20370;-78
2023/05/29 08:03:09;;;;;;;;;;;26.10;49.50;;;;;;4989418;28;19913;-81
2023/05/29 08:05:35;;;;;;;;;;;24.60;49.90;;;;;;4965265;28;19910;-81
2023/05/29 08:08:01;;;;;;;;;;;25.30;51.90;;;;;;4992239;28;19913;-80
2023/05/29 08:10:26;;;;;;;;;;;24.70;54.50;;;;;;4987793;28;20420;-80
2023/05/29 08:12:52;;;;;;;;;;;24.40;55.80;;;;;;4989284;28;19917;-80
2023/05/29 08:15:17;;;;;;;;;;;23.20;57.00;;;;;;4987613;28;19910;-79
2023/05/29 08:17:43;;;;;;;;;;;24.30;55.40;;;;;;4986287;28;19910;-79
2023/05/29 08:20:10;;;;;;;;;;;23.80;54.80;;;;;;4956355;28;19917;-79
2023/05/29 08:22:35;;;;;;;;;;;25.10;52.70;;;;;;4991483;28;19910;-81
2023/05/29 08:25:01;;;;;;;;;;;24.20;52.80;;;;;;4985353;28;19910;-80
2023/05/29 08:27:26;;;;;;;;;;;25.40;52.30;;;;;;4991925;28;20362;-79
2023/05/29 08:29:54;;;;;;;;;;;25.80;52.30;;;;;;4984498;28;19981;-78
2023/05/29 08:32:20;;;;;;;;;;;25.70;50.00;;;;;;4974016;28;20290;-79
2023/05/29 08:34:45;;;;;;;;;;;26.20;50.10;;;;;;4973422;28;19920;-79
2023/05/29 08:37:12;;;;;;;;;;;27.00;49.30;;;;;;4987984;28;19910;-81
2023/05/29 08:39:37;;;;;;;;;;;28.90;45.90;;;;;;4971216;28;19914;-79
2023/05/29 08:42:23;;;;;;;;;;;30.10;46.60;;;;;;4987956;28;20337;-79
2023/05/29 08:44:49;;;;;;;;;;;32.40;41.60;;;;;;4965499;28;19920;-80
2023/05/29 08:47:20;;;;;;;;;;;32.40;40.90;;;;;;4992170;28;20417;-79
2023/05/29 08:49:50;;;;;;;2.20;1.17;;;34.40;35.40;;;;;;4990075;28;20396;-81
2023/05/29 08:52:18;;;;;;;5.35;1.13;;;34.70;34.70;;;;;;4955445;28;20034;-83
2023/05/29 08:54:44;;;;;;;3.78;1.10;;;;;;;;;;4973981;28;20042;-80
2023/05/29 08:57:11;;;;;;;2.47;1.20;;;;;;;;;;4992321;28;20030;-81
2023/05/29 08:59:41;;;;;;;2.15;1.08;;;36.40;32.80;;;;;;4995224;28;20030;-76
2023/05/29 09:02:07;;;;;;;3.05;1.10;;;;;;;;;;4995282;28;20050;-79
2023/05/29 09:04:33;;;;;;;;;;;35.30;31.40;;;;;;4975969;28;20554;-80
2023/05/29 09:06:59;;;;;;;;;;;35.80;31.90;;;;;;4974245;28;19925;-80
2023/05/29 09:09:27;;;;;;;;;;;36.50;31.50;;;;;;4992120;28;19932;-77
2023/05/29 09:11:53;;;;;;;4.05;1.60;;;;;;;;;;4992705;28;19910;-82
2023/05/29 09:14:39;;;;;;;5.70;0.95;;;37.40;27.80;;;;;;4988274;28;20565;-80
2023/05/29 09:17:06;;;;;;;2.58;0.93;;;37.20;29.90;;;;;;4997211;28;20022;-82
2023/05/29 09:19:32;;;;;;;3.28;1.10;;;;;;;;;;4971492;28;20050;-79
2023/05/29 09:22:06;;;;;;;2.10;1.02;;;34.40;34.80;;;;;;4976242;28;20414;-80
2023/05/29 09:24:38;;;;;;;3.60;1.10;;;33.80;52.40;;;;;;4972742;28;20038;-79
2023/05/29 09:27:05;;;;;;;1.95;0.95;;;31.90;53.90;;;;;;4987017;28;20117;-83
2023/05/29 09:29:31;;;;;;;;;;;30.80;36.90;;;;;;4976892;28;20030;-80
2023/05/29 09:31:57;;;;;;;;;;;30.90;38.20;;;;;;4996890;28;19957;-79
2023/05/29 09:34:23;;;;;;;;;;;29.00;42.10;;;;;;4976849;28;19910;-79
2023/05/29 09:36:51;;;;;;;;;;;28.70;41.20;;;;;;4989973;28;19996;-79
2023/05/29 09:39:17;;;;;;;;;;;27.80;41.60;;;;;;4989212;28;19917;-82
2023/05/29 09:41:43;;;;;;;;;;;27.50;42.90;;;;;;4985771;28;19910;-76
2023/05/29 09:44:13;;;;;;;;;;;27.20;46.70;;;;;;4989926;28;19940;-79
2023/05/29 09:46:38;;;;;;;;;;;27.10;44.50;;;;;;4995280;28;20446;-79
2023/05/29 09:49:08;;;;;;;;;;;26.60;45.50;;;;;;4987627;28;19949;-79
2023/05/29 09:51:33;;;;;;;;;;;26.20;46.90;;;;;;4994945;28;19936;-81
2023/05/29 09:54:01;;;;;;;;;;;26.20;45.70;;;;;;4991631;28;20370;-79
2023/05/29 09:56:26;;;;;;;;;;;26.20;45.80;;;;;;4989498;28;19914;-81
2023/05/29 09:58:56;;;;;;;;;;;25.70;48.00;;;;;;4986853;28;19910;-80
2023/05/29 10:01:22;;;;;;;;;;;25.60;46.90;;;;;;4988658;28;19916;-77
2023/05/29 10:03:48;;;;;;;;;;;25.30;49.40;;;;;;4991933;28;19925;-81
2023/05/29 10:06:16;;;;;;;;;;;25.30;47.50;;;;;;4993896;28;19914;-77
2023/05/29 10:08:53;;;;;;;;;;;24.80;47.10;;;;;;4974026;28;19921;-79
2023/05/29 10:11:24;;;;;;;;;;;25.50;47.80;;;;;;4989535;28;19917;-78
2023/05/29 10:13:51;;;;;;;;;;;24.60;47.00;;;;;;4991030;28;20180;-79
2023/05/29 10:16:18;;;;;;;;;;;25.00;47.70;;;;;;4994280;28;19913;-76
2023/05/29 10:18:45;;;;;;;;;;;25.50;46.70;;;;;;4985648;28;19917;-78
2023/05/29 10:21:11;;;;;;;;;;;25.40;48.00;;;;;;4975108;28;19910;-78
2023/05/29 10:23:38;;;;;;;;;;;24.80;46.90;;;;;;4989908;28;19918;-78
2023/05/29 10:26:15;;;;;;;;;;;25.40;49.60;;;;;;4994779;28;19916;-79
2023/05/29 10:28:46;;;;;;;;;;;24.90;49.70;;;;;;4988146;28;19921;-77
2023/05/29 10:31:16;;;;;;;;;;;25.70;49.40;;;;;;4993055;28;19913;-80
2023/05/29 10:33:52;;;;;;;;;;;25.60;47.40;;;;;;4991716;28;20146;-81
2023/05/29 10:36:21;;;;;;;;;;;25.40;47.00;;;;;;4992417;28;19914;-80
2023/05/29 10:38:47;;;;;;;;;;;25.40;46.30;;;;;;4992362;28;19969;-78
2023/05/29 10:41:32;;;;;;;;;;;24.40;46.40;;;;;;4993204;28;19944;-80
2023/05/29 10:43:59;;;;;;;;;;;25.30;47.40;;;;;;5001130;28;19924;-77
2023/05/29 10:46:44;;;;;;;;;;;25.50;51.40;;;;;;4990755;28;19922;-83
2023/05/29 10:49:19;;;;;;;;;;;25.00;48.50;;;;;;4988945;28;19898;-79
2023/05/29 10:51:46;;;;;;;;;;;24.90;46.10;;;;;;4987208;28;19926;-77
2023/05/29 10:54:21;;;;;;;;;;;25.30;48.30;;;;;;4989228;28;19910;-78
2023/05/29 10:56:57;;;;;;;;;;;24.40;48.00;;;;;;4987350;28;20015;-78
2023/05/29 10:59:26;;;;;;;;;;;24.40;48.30;;;;;;4989190;28;19910;-77
2023/05/29 11:01:53;;;;;;;;;;;24.70;49.70;;;;;;4990165;28;19909;-79
2023/05/29 11:04:22;;;;;;;;;;;24.60;50.20;;;;;;4984037;28;19914;-80
2023/05/29 11:06:47;;;;;;;;;;;24.90;47.10;;;;;;4989680;28;19920;-81
2023/05/29 11:09:30;;;;;;;;;;;25.70;48.70;;;;;;4991703;28;19953;-78
2023/05/29 11:12:23;;;;;;;;;;;25.40;45.70;;;;;;4988808;28;20004;-79
2023/05/29 11:15:15;;;;;;;;;;;24.60;47.30;;;;;;4987963;28;19910;-78
2023/05/29 11:17:45;;;;;;;;;;;25.50;48.10;;;;;;4983949;28;20380;-77
2023/05/29 11:20:24;;;;;;;;;;;25.70;47.50;;;;;;4992423;28;19916;-80
2023/05/29 11:22:59;;;;;;;;;;;25.70;47.70;;;;;;4970917;28;19917;-80
2023/05/29 11:25:25;;;;;;;;;;;25.60;45.60;;;;;;4981644;28;19960;-78
2023/05/29 11:27:53;;;;;;;;;;;25.70;46.40;;;;;;4993408;28;19917;-78
2023/05/29 11:30:21;;;;;;;;;;;25.50;47.70;;;;;;4988610;28;20013;-80
2023/05/29 11:32:47;;;;;;;;;;;25.40;46.90;;;;;;4981212;28;19941;-77
2023/05/29 11:35:13;;;;;;;;;;;25.30;47.10;;;;;;4989326;28;20354;-81
2023/05/29 11:37:43;;;;;;;;;;;25.30;48.30;;;;;;4989054;28;20294;-80
2023/05/29 11:40:09;;;;;;;;;;;25.20;47.60;;;;;;4988094;28;19917;-77
2023/05/29 11:42:34;;;;;;;;;;;25.40;46.30;;;;;;4982596;28;19910;-76
2023/05/29 11:45:13;;;;;;;;;;;25.30;46.60;;;;;;4957784;28;20263;-80
2023/05/29 11:47:58;;;;;;;;;;;24.70;46.30;;;;;;4984977;28;19918;-79
2023/05/29 11:50:25;;;;;;;;;;;25.50;47.40;;;;;;4974938;28;19909;-77
2023/05/29 11:52:53;;;;;;;;;;;25.70;45.90;;;;;;4986349;28;20294;-78
2023/05/29 11:55:20;;;;;;;;;;;25.70;48.60;;;;;;4993466;28;19906;-80
2023/05/29 11:57:47;;;;;;;;;;;25.70;45.00;;;;;;4981615;28;19957;-80
2023/05/29 12:00:14;;;;;;;;;;;25.80;46.80;;;;;;4973004;28;19905;-82
2023/05/29 12:02:40;;;;;;;;;;;25.70;47.30;;;;;;4991113;28;19947;-79
2023/05/29 12:05:07;;;;;;;;;;;25.80;47.70;;;;;;4977585;28;20342;-80
2023/05/29 12:07:33;;;;;;;;;;;25.00;47.10;;;;;;4989774;28;19917;-79
2023/05/29 12:10:16;;;;;;;;;;;25.70;49.30;;;;;;4969415;28;19917;-79
2023/05/29 12:12:46;;;;;;;;;;;25.80;46.30;;;;;;4991329;28;19910;-78
2023/05/29 12:15:11;;;;;;;;;;;25.70;46.60;;;;;;4979174;28;19917;-79
2023/05/29 12:17:37;;;;;;;;;;;25.60;47.20;;;;;;4991000;28;19906;-78
2023/05/29 12:20:03;;;;;;;;;;;25.80;47.60;;;;;;4988058;28;19937;-78
2023/05/29 12:22:33;;;;;;;;;;;25.70;47.50;;;;;;4967979;28;19918;-77
2023/05/29 12:25:03;;;;;;;;;;;25.80;47.40;;;;;;4993518;28;19910;-78
2023/05/29 12:27:29;;;;;;;;;;;25.80;47.00;;;;;;4993886;28;19941;-80
2023/05/29 12:30:03;;;;;;;;;;;25.90;49.20;;;;;;4992383;28;19914;-77
2023/05/29 12:32:35;;;;;;;;;;;25.90;48.30;;;;;;4968637;28;19957;-77
2023/05/29 12:35:03;;;;;;;;;;;25.40;46.70;;;;;;4989529;28;20305;-79
2023/05/29 12:37:30;;;;;;;;;;;25.90;48.00;;;;;;4991347;28;19910;-79
2023/05/29 12:40:15;;;;;;;;;;;26.10;47.00;;;;;;4996958;28;20538;-79
2023/05/29 12:42:40;;;;;;;;;;;26.10;46.10;;;;;;4991200;28;19916;-81
2023/05/29 12:45:07;;;;;;;;;;;26.10;47.70;;;;;;4989155;28;19917;-79
2023/05/29 12:47:33;;;;;;;;;;;25.80;45.70;;;;;;4996807;28;19936;-77
2023/05/29 12:49:59;;;;;;;;;;;25.80;49.10;;;;;;4989482;28;19917;-78
2023/05/29 12:52:24;;;;;;;;;;;25.40;47.40;;;;;;4993341;28;20004;-78
2023/05/29 12:54:50;;;;;;;;;;;25.80;47.80;;;;;;4992996;28;20366;-79
2023/05/29 12:57:15;;;;;;;;;;;25.60;46.50;;;;;;4997634;28;20165;-81
2023/05/29 12:59:41;;;;;;;;;;;25.40;46.20;;;;;;4992963;28;19972;-78
2023/05/29 13:02:09;;;;;;;;;;;25.90;46.90;;;;;;4993448;28;19952;-78
2023/05/29 13:04:34;;;;;;;;;;;25.90;47.90;;;;;;4992231;28;19909;-74
2023/05/29 13:07:00;;;;;;;;;;;25.60;48.90;;;;;;4975392;28;19922;-77
2023/05/29 13:09:31;;;;;;;;;;;25.60;46.90;;;;;;4994504;28;19910;-81
2023/05/29 13:11:57;;;;;;;;;;;25.60;47.00;;;;;;4994619;28;20004;-77
2023/05/29 13:14:22;;;;;;;;;;;25.80;47.10;;;;;;4998417;28;19965;-79
2023/05/29 13:16:48;;;;;;;;;;;25.60;48.00;;;;;;4984187;28;19916;-77
2023/05/29 13:19:13;;;;;;;;;;;25.80;47.90;;;;;;4994614;28;19930;-77
2023/05/29 13:21:40;;;;;;;;;;;26.10;46.80;;;;;;4992448;28;20060;-81
2023/05/29 13:24:05;;;;;;;;;;;25.90;45.70;;;;;;4978327;28;19910;-78
2023/05/29 13:26:30;;;;;;;;;;;26.10;46.80;;;;;;4998694;28;19909;-81
2023/05/29 13:28:56;;;;;;;;;;;26.10;46.40;;;;;;4977773;28;20349;-79
2023/05/29 13:31:21;;;;;;;;;;;25.90;46.10;;;;;;4993701;28;19917;-80
2023/05/29 13:33:47;;;;;;;;;;;26.10;47.30;;;;;;4991313;28;19913;-79
2023/05/29 13:36:13;;;;;;;;;;;26.10;45.70;;;;;;4989408;28;19913;-80
2023/05/29 13:38:38;;;;;;;;;;;26.20;46.80;;;;;;4977558;28;19910;-80
2023/05/29 13:41:03;;;;;;;;;;;26.20;46.70;;;;;;4993993;28;19905;-79
2023/05/29 13:43:29;;;;;;;;;;;26.20;47.20;;;;;;4988613;28;20088;-79
2023/05/29 13:45:54;;;;;;;;;;;26.00;46.40;;;;;;4989114;28;20375;-77
2023/05/29 13:48:21;;;;;;;;;;;26.00;46.70;;;;;;4990293;28;20379;-79
2023/05/29 13:50:46;;;;;;;;;;;25.90;46.10;;;;;;4995105;28;19909;-79
2023/05/29 13:53:12;;;;;;;;;;;26.10;48.70;;;;;;4994581;28;19925;-78
2023/05/29 13:55:37;;;;;;;;;;;25.80;46.70;;;;;;4991750;28;19914;-79
2023/05/29 13:58:03;;;;;;;;;;;25.80;46.90;;;;;;4994694;28;19906;-79
2023/05/29 14:00:28;;;;;;;;;;;25.80;47.30;;;;;;4986889;28;20184;-79
2023/05/29 14:02:54;;;;;;;;;;;25.80;47.70;;;;;;4978325;28;19909;-79
2023/05/29 14:05:19;;;;;;;;;;;25.70;48.40;;;;;;4988760;28;19914;-79
2023/05/29 14:07:45;;;;;;;;;;;25.80;46.80;;;;;;4992662;28;19914;-81
2023/05/29 14:10:10;;;;;;;;;;;25.80;46.90;;;;;;4989723;28;20008;-77
2023/05/29 14:12:36;;;;;;;;;;;25.80;47.00;;;;;;4993069;28;19917;-79
2023/05/29 14:15:01;;;;;;;;;;;25.70;47.10;;;;;;4994161;28;20008;-78
2023/05/29 14:17:27;;;;;;;;;;;25.50;47.20;;;;;;4987957;28;19914;-79
2023/05/29 14:19:52;;;;;;;;;;;25.20;47.20;;;;;;4978066;28;19917;-78
2023/05/29 14:22:18;;;;;;;;;;;24.80;46.50;;;;;;4991774;28;19944;-80
2023/05/29 14:24:43;;;;;;;;;;;25.50;46.70;;;;;;4993520;28;19918;-79